sensor_id;sensor_type;location;lat;lon;timestamp;P1;durP1;ratioP1;P2;durP2;ratioP2
30824;SDS011;17550;45.486;12.222;2023-05-17T00:00:50;6.32;;;4.93;;
30824;SDS011;17550;45.486;12.222;2023-05-17T00:03:16;7.72;;;4.53;;
30824;SDS011;17550;45.486;12.222;2023-05-17T00:05:42;10.05;;;5.13;;
30824;SDS011;17550;45.486;12.222;2023-05-17T00:08:07;8.38;;;5.05;;
30824;SDS011;17550;45.486;12.222;2023-05-17T00:10:33;8.23;;;5.10;;
30824;SDS011;17550;45.486;12.222;2023-05-17T00:12:59;11.55;;;4.38;;
30824;SDS011;17550;45.486;12.222;2023-05-17T00:15:24;7.00;;;4.93;;
30824;SDS011;17550;45.486;12.222;2023-05-17T00:17:50;10.50;;;5.05;;
30824;SDS011;17550;45.486;12.222;2023-05-17T00:20:16;7.07;;;4.85;;
30824;SDS011;17550;45.486;12.222;2023-05-17T00:22:41;6.47;;;4.10;;
30824;SDS011;17550;45.486;12.222;2023-05-17T00:25:09;4.40;;;3.20;;
30824;SDS011;17550;45.486;12.222;2023-05-17T00:27:35;7.53;;;3.25;;
30824;SDS011;17550;45.486;12.222;2023-05-17T00:30:01;2.95;;;1.90;;
30824;SDS011;17550;45.486;12.222;2023-05-17T00:32:26;4.50;;;1.92;;
30824;SDS011;17550;45.486;12.222;2023-05-17T00:34:52;2.03;;;1.50;;
30824;SDS011;17550;45.486;12.222;2023-05-17T00:37:18;5.18;;;1.40;;
30824;SDS011;17550;45.486;12.222;2023-05-17T00:39:43;3.03;;;1.42;;
30824;SDS011;17550;45.486;12.222;2023-05-17T00:42:10;3.05;;;1.70;;
30824;SDS011;17550;45.486;12.222;2023-05-17T00:44:36;3.78;;;1.42;;
30824;SDS011;17550;45.486;12.222;2023-05-17T00:47:01;4.13;;;1.30;;
30824;SDS011;17550;45.486;12.222;2023-05-17T00:49:27;3.33;;;1.60;;
30824;SDS011;17550;45.486;12.222;2023-05-17T00:51:53;2.45;;;1.85;;
30824;SDS011;17550;45.486;12.222;2023-05-17T00:54:20;4.00;;;1.73;;
30824;SDS011;17550;45.486;12.222;2023-05-17T00:56:46;3.75;;;1.55;;
30824;SDS011;17550;45.486;12.222;2023-05-17T00:59:12;5.93;;;1.45;;
30824;SDS011;17550;45.486;12.222;2023-05-17T01:01:41;4.53;;;1.20;;
30824;SDS011;17550;45.486;12.222;2023-05-17T01:04:09;1.52;;;1.02;;
30824;SDS011;17550;45.486;12.222;2023-05-17T01:06:35;4.47;;;1.10;;
30824;SDS011;17550;45.486;12.222;2023-05-17T01:09:02;2.45;;;1.02;;
30824;SDS011;17550;45.486;12.222;2023-05-17T01:17:05;1.30;;;0.97;;
30824;SDS011;17550;45.486;12.222;2023-05-17T01:19:44;2.85;;;0.98;;
30824;SDS011;17550;45.486;12.222;2023-05-17T01:28:01;3.20;;;1.05;;
30824;SDS011;17550;45.486;12.222;2023-05-17T01:30:29;2.95;;;1.00;;
30824;SDS011;17550;45.486;12.222;2023-05-17T01:32:57;4.50;;;1.00;;
30824;SDS011;17550;45.486;12.222;2023-05-17T01:35:24;1.90;;;1.00;;
30824;SDS011;17550;45.486;12.222;2023-05-17T01:37:53;2.58;;;1.10;;
30824;SDS011;17550;45.486;12.222;2023-05-17T01:40:19;5.97;;;1.20;;
30824;SDS011;17550;45.486;12.222;2023-05-17T01:42:47;2.00;;;1.05;;
30824;SDS011;17550;45.486;12.222;2023-05-17T01:45:32;3.33;;;1.17;;
30824;SDS011;17550;45.486;12.222;2023-05-17T01:50:45;1.45;;;0.95;;
30824;SDS011;17550;45.486;12.222;2023-05-17T01:53:29;3.35;;;1.20;;
30824;SDS011;17550;45.486;12.222;2023-05-17T01:56:01;3.65;;;1.08;;
30824;SDS011;17550;45.486;12.222;2023-05-17T01:58:29;5.40;;;1.08;;
30824;SDS011;17550;45.486;12.222;2023-05-17T02:00:59;1.38;;;1.00;;
30824;SDS011;17550;45.486;12.222;2023-05-17T02:03:26;4.60;;;1.05;;
30824;SDS011;17550;45.486;12.222;2023-05-17T02:05:53;1.35;;;0.98;;
30824;SDS011;17550;45.486;12.222;2023-05-17T02:08:18;4.72;;;1.25;;
30824;SDS011;17550;45.486;12.222;2023-05-17T02:10:44;5.45;;;1.10;;
30824;SDS011;17550;45.486;12.222;2023-05-17T02:13:10;5.85;;;1.02;;
30824;SDS011;17550;45.486;12.222;2023-05-17T02:15:36;6.13;;;0.90;;
30824;SDS011;17550;45.486;12.222;2023-05-17T02:18:02;3.53;;;1.60;;
30824;SDS011;17550;45.486;12.222;2023-05-17T02:20:28;3.70;;;1.00;;
30824;SDS011;17550;45.486;12.222;2023-05-17T02:22:53;3.22;;;0.95;;
30824;SDS011;17550;45.486;12.222;2023-05-17T02:25:19;4.55;;;1.25;;
30824;SDS011;17550;45.486;12.222;2023-05-17T02:27:45;3.03;;;1.20;;
30824;SDS011;17550;45.486;12.222;2023-05-17T02:30:11;2.78;;;1.05;;
30824;SDS011;17550;45.486;12.222;2023-05-17T02:32:38;1.75;;;1.10;;
30824;SDS011;17550;45.486;12.222;2023-05-17T02:35:04;2.60;;;1.10;;
30824;SDS011;17550;45.486;12.222;2023-05-17T02:37:30;1.38;;;0.95;;
30824;SDS011;17550;45.486;12.222;2023-05-17T02:39:55;5.60;;;1.23;;
30824;SDS011;17550;45.486;12.222;2023-05-17T02:42:21;1.45;;;1.00;;
30824;SDS011;17550;45.486;12.222;2023-05-17T02:44:47;4.95;;;1.23;;
30824;SDS011;17550;45.486;12.222;2023-05-17T02:47:16;3.42;;;0.88;;
30824;SDS011;17550;45.486;12.222;2023-05-17T02:49:45;1.90;;;1.27;;
30824;SDS011;17550;45.486;12.222;2023-05-17T02:52:11;2.75;;;0.90;;
30824;SDS011;17550;45.486;12.222;2023-05-17T02:54:38;2.22;;;1.08;;
30824;SDS011;17550;45.486;12.222;2023-05-17T02:57:04;3.45;;;1.00;;
30824;SDS011;17550;45.486;12.222;2023-05-17T02:59:30;5.63;;;1.20;;
30824;SDS011;17550;45.486;12.222;2023-05-17T03:01:56;5.32;;;1.10;;
30824;SDS011;17550;45.486;12.222;2023-05-17T03:04:21;3.67;;;1.20;;
30824;SDS011;17550;45.486;12.222;2023-05-17T03:06:47;7.40;;;1.73;;
30824;SDS011;17550;45.486;12.222;2023-05-17T03:09:14;5.57;;;1.35;;
30824;SDS011;17550;45.486;12.222;2023-05-17T03:11:40;3.28;;;1.27;;
30824;SDS011;17550;45.486;12.222;2023-05-17T03:14:06;3.30;;;1.20;;
30824;SDS011;17550;45.486;12.222;2023-05-17T03:16:31;5.22;;;1.15;;
30824;SDS011;17550;45.486;12.222;2023-05-17T03:18:57;5.78;;;1.30;;
30824;SDS011;17550;45.486;12.222;2023-05-17T03:21:23;5.07;;;1.20;;
30824;SDS011;17550;45.486;12.222;2023-05-17T03:23:48;2.65;;;1.23;;
30824;SDS011;17550;45.486;12.222;2023-05-17T03:26:14;3.50;;;1.17;;
30824;SDS011;17550;45.486;12.222;2023-05-17T03:28:40;2.65;;;1.10;;
30824;SDS011;17550;45.486;12.222;2023-05-17T03:31:06;4.15;;;1.25;;
30824;SDS011;17550;45.486;12.222;2023-05-17T03:33:32;2.38;;;1.02;;
30824;SDS011;17550;45.486;12.222;2023-05-17T03:35:57;2.58;;;1.30;;
30824;SDS011;17550;45.486;12.222;2023-05-17T03:38:23;3.92;;;1.20;;
30824;SDS011;17550;45.486;12.222;2023-05-17T03:40:50;2.63;;;1.27;;
30824;SDS011;17550;45.486;12.222;2023-05-17T03:43:16;1.88;;;0.98;;
30824;SDS011;17550;45.486;12.222;2023-05-17T03:45:42;3.63;;;0.95;;
30824;SDS011;17550;45.486;12.222;2023-05-17T03:48:07;3.38;;;0.80;;
30824;SDS011;17550;45.486;12.222;2023-05-17T03:50:33;1.98;;;1.00;;
30824;SDS011;17550;45.486;12.222;2023-05-17T03:52:59;6.03;;;1.30;;
30824;SDS011;17550;45.486;12.222;2023-05-17T03:55:24;2.40;;;0.85;;
30824;SDS011;17550;45.486;12.222;2023-05-17T03:57:50;0.93;;;0.70;;
30824;SDS011;17550;45.486;12.222;2023-05-17T04:00:16;1.67;;;0.93;;
30824;SDS011;17550;45.486;12.222;2023-05-17T04:02:46;1.50;;;0.70;;
30824;SDS011;17550;45.486;12.222;2023-05-17T04:05:12;1.00;;;0.68;;
30824;SDS011;17550;45.486;12.222;2023-05-17T04:07:38;3.95;;;0.95;;
30824;SDS011;17550;45.486;12.222;2023-05-17T04:10:04;2.50;;;0.88;;
30824;SDS011;17550;45.486;12.222;2023-05-17T04:12:31;1.30;;;0.70;;
30824;SDS011;17550;45.486;12.222;2023-05-17T04:14:56;3.63;;;0.88;;
30824;SDS011;17550;45.486;12.222;2023-05-17T04:17:22;1.73;;;0.90;;
30824;SDS011;17550;45.486;12.222;2023-05-17T04:19:48;4.70;;;1.05;;
30824;SDS011;17550;45.486;12.222;2023-05-17T04:22:13;1.83;;;1.20;;
30824;SDS011;17550;45.486;12.222;2023-05-17T04:24:39;17.90;;;1.40;;
30824;SDS011;17550;45.486;12.222;2023-05-17T04:27:05;2.10;;;1.05;;
30824;SDS011;17550;45.486;12.222;2023-05-17T04:29:31;4.00;;;1.10;;
30824;SDS011;17550;45.486;12.222;2023-05-17T04:31:56;1.80;;;0.82;;
30824;SDS011;17550;45.486;12.222;2023-05-17T04:34:23;2.47;;;0.95;;
30824;SDS011;17550;45.486;12.222;2023-05-17T04:36:50;2.60;;;1.10;;
30824;SDS011;17550;45.486;12.222;2023-05-17T04:39:15;2.30;;;1.00;;
30824;SDS011;17550;45.486;12.222;2023-05-17T04:41:42;1.77;;;0.85;;
30824;SDS011;17550;45.486;12.222;2023-05-17T04:44:07;2.45;;;0.93;;
30824;SDS011;17550;45.486;12.222;2023-05-17T04:46:33;4.45;;;0.80;;
30824;SDS011;17550;45.486;12.222;2023-05-17T04:48:59;1.98;;;0.90;;
30824;SDS011;17550;45.486;12.222;2023-05-17T04:51:25;2.20;;;1.10;;
30824;SDS011;17550;45.486;12.222;2023-05-17T04:53:51;1.45;;;1.10;;
30824;SDS011;17550;45.486;12.222;2023-05-17T04:56:17;2.20;;;0.93;;
30824;SDS011;17550;45.486;12.222;2023-05-17T04:58:43;1.73;;;0.80;;
30824;SDS011;17550;45.486;12.222;2023-05-17T05:01:08;2.83;;;1.80;;
30824;SDS011;17550;45.486;12.222;2023-05-17T05:03:34;3.22;;;1.10;;
30824;SDS011;17550;45.486;12.222;2023-05-17T05:06:00;1.70;;;1.10;;
30824;SDS011;17550;45.486;12.222;2023-05-17T05:08:28;1.35;;;0.82;;
30824;SDS011;17550;45.486;12.222;2023-05-17T05:10:54;2.90;;;0.93;;
30824;SDS011;17550;45.486;12.222;2023-05-17T05:13:20;3.60;;;0.93;;
30824;SDS011;17550;45.486;12.222;2023-05-17T05:15:46;5.13;;;0.88;;
30824;SDS011;17550;45.486;12.222;2023-05-17T05:18:12;1.80;;;0.90;;
30824;SDS011;17550;45.486;12.222;2023-05-17T05:20:39;1.55;;;0.90;;
30824;SDS011;17550;45.486;12.222;2023-05-17T05:23:05;8.45;;;1.10;;
30824;SDS011;17550;45.486;12.222;2023-05-17T05:25:31;4.13;;;1.10;;
30824;SDS011;17550;45.486;12.222;2023-05-17T05:27:58;6.07;;;1.45;;
30824;SDS011;17550;45.486;12.222;2023-05-17T05:30:24;2.63;;;0.85;;
30824;SDS011;17550;45.486;12.222;2023-05-17T05:32:50;2.67;;;1.20;;
30824;SDS011;17550;45.486;12.222;2023-05-17T05:35:16;2.03;;;1.10;;
30824;SDS011;17550;45.486;12.222;2023-05-17T05:37:43;2.10;;;1.35;;
30824;SDS011;17550;45.486;12.222;2023-05-17T05:40:09;2.63;;;1.40;;
30824;SDS011;17550;45.486;12.222;2023-05-17T05:42:35;5.18;;;1.77;;
30824;SDS011;17550;45.486;12.222;2023-05-17T05:45:01;2.33;;;1.70;;
30824;SDS011;17550;45.486;12.222;2023-05-17T05:47:27;2.40;;;1.55;;
30824;SDS011;17550;45.486;12.222;2023-05-17T05:49:52;5.63;;;1.50;;
30824;SDS011;17550;45.486;12.222;2023-05-17T05:52:18;4.63;;;2.20;;
30824;SDS011;17550;45.486;12.222;2023-05-17T05:54:45;3.78;;;1.90;;
30824;SDS011;17550;45.486;12.222;2023-05-17T05:57:11;5.93;;;2.58;;
30824;SDS011;17550;45.486;12.222;2023-05-17T05:59:37;4.30;;;2.55;;
30824;SDS011;17550;45.486;12.222;2023-05-17T06:02:03;3.78;;;2.25;;
30824;SDS011;17550;45.486;12.222;2023-05-17T06:04:28;3.90;;;2.45;;
30824;SDS011;17550;45.486;12.222;2023-05-17T06:06:54;3.55;;;2.15;;
30824;SDS011;17550;45.486;12.222;2023-05-17T06:09:20;6.25;;;2.30;;
30824;SDS011;17550;45.486;12.222;2023-05-17T06:11:45;2.65;;;2.20;;
30824;SDS011;17550;45.486;12.222;2023-05-17T06:14:11;3.50;;;2.70;;
30824;SDS011;17550;45.486;12.222;2023-05-17T06:16:37;2.92;;;2.00;;
30824;SDS011;17550;45.486;12.222;2023-05-17T06:19:03;3.83;;;2.60;;
30824;SDS011;17550;45.486;12.222;2023-05-17T06:21:28;3.90;;;2.75;;
30824;SDS011;17550;45.486;12.222;2023-05-17T06:23:55;7.53;;;2.95;;
30824;SDS011;17550;45.486;12.222;2023-05-17T06:26:21;6.20;;;3.05;;
30824;SDS011;17550;45.486;12.222;2023-05-17T06:28:47;4.75;;;2.63;;
30824;SDS011;17550;45.486;12.222;2023-05-17T06:31:12;6.78;;;3.05;;
30824;SDS011;17550;45.486;12.222;2023-05-17T06:33:38;5.05;;;2.60;;
30824;SDS011;17550;45.486;12.222;2023-05-17T06:36:04;6.57;;;2.50;;
30824;SDS011;17550;45.486;12.222;2023-05-17T06:38:30;7.78;;;3.08;;
30824;SDS011;17550;45.486;12.222;2023-05-17T06:40:55;5.15;;;2.92;;
30824;SDS011;17550;45.486;12.222;2023-05-17T06:43:22;12.00;;;3.85;;
30824;SDS011;17550;45.486;12.222;2023-05-17T06:45:48;5.95;;;2.90;;
30824;SDS011;17550;45.486;12.222;2023-05-17T06:48:14;8.70;;;3.13;;
30824;SDS011;17550;45.486;12.222;2023-05-17T06:50:40;5.53;;;3.20;;
30824;SDS011;17550;45.486;12.222;2023-05-17T06:53:06;5.70;;;3.40;;
30824;SDS011;17550;45.486;12.222;2023-05-17T06:55:32;4.10;;;2.97;;
30824;SDS011;17550;45.486;12.222;2023-05-17T06:57:57;4.40;;;2.92;;
30824;SDS011;17550;45.486;12.222;2023-05-17T07:00:24;4.88;;;3.50;;
30824;SDS011;17550;45.486;12.222;2023-05-17T07:02:50;6.25;;;3.22;;
30824;SDS011;17550;45.486;12.222;2023-05-17T07:05:16;4.70;;;3.45;;
30824;SDS011;17550;45.486;12.222;2023-05-17T07:07:41;4.65;;;3.30;;
30824;SDS011;17550;45.486;12.222;2023-05-17T07:10:07;6.82;;;3.22;;
30824;SDS011;17550;45.486;12.222;2023-05-17T07:12:33;4.90;;;3.20;;
30824;SDS011;17550;45.486;12.222;2023-05-17T07:14:59;5.20;;;3.00;;
30824;SDS011;17550;45.486;12.222;2023-05-17T07:17:24;6.72;;;3.13;;
30824;SDS011;17550;45.486;12.222;2023-05-17T07:19:50;3.97;;;3.03;;
30824;SDS011;17550;45.486;12.222;2023-05-17T07:22:16;6.00;;;3.33;;
30824;SDS011;17550;45.486;12.222;2023-05-17T07:24:43;3.60;;;3.05;;
30824;SDS011;17550;45.486;12.222;2023-05-17T07:27:09;6.57;;;3.17;;
30824;SDS011;17550;45.486;12.222;2023-05-17T07:29:35;4.82;;;3.35;;
30824;SDS011;17550;45.486;12.222;2023-05-17T07:32:01;5.15;;;3.63;;
30824;SDS011;17550;45.486;12.222;2023-05-17T07:34:27;7.30;;;3.38;;
30824;SDS011;17550;45.486;12.222;2023-05-17T07:36:54;6.35;;;3.30;;
30824;SDS011;17550;45.486;12.222;2023-05-17T07:39:19;4.72;;;3.42;;
30824;SDS011;17550;45.486;12.222;2023-05-17T07:41:45;8.60;;;3.83;;
30824;SDS011;17550;45.486;12.222;2023-05-17T07:44:11;7.70;;;4.30;;
30824;SDS011;17550;45.486;12.222;2023-05-17T07:46:37;5.70;;;3.50;;
30824;SDS011;17550;45.486;12.222;2023-05-17T07:49:02;5.82;;;4.15;;
30824;SDS011;17550;45.486;12.222;2023-05-17T07:51:28;7.32;;;4.43;;
30824;SDS011;17550;45.486;12.222;2023-05-17T07:53:54;7.32;;;4.10;;
30824;SDS011;17550;45.486;12.222;2023-05-17T07:56:19;9.35;;;4.60;;
30824;SDS011;17550;45.486;12.222;2023-05-17T07:58:45;8.85;;;4.95;;
30824;SDS011;17550;45.486;12.222;2023-05-17T08:01:11;6.70;;;3.97;;
30824;SDS011;17550;45.486;12.222;2023-05-17T08:03:36;7.10;;;4.65;;
30824;SDS011;17550;45.486;12.222;2023-05-17T08:06:03;11.00;;;5.05;;
30824;SDS011;17550;45.486;12.222;2023-05-17T08:08:30;6.22;;;4.50;;
30824;SDS011;17550;45.486;12.222;2023-05-17T08:10:55;7.78;;;4.22;;
30824;SDS011;17550;45.486;12.222;2023-05-17T08:13:21;7.65;;;4.43;;
30824;SDS011;17550;45.486;12.222;2023-05-17T08:15:47;6.03;;;4.28;;
30824;SDS011;17550;45.486;12.222;2023-05-17T08:18:13;5.05;;;3.63;;
30824;SDS011;17550;45.486;12.222;2023-05-17T08:20:39;6.32;;;3.45;;
30824;SDS011;17550;45.486;12.222;2023-05-17T08:23:05;8.23;;;3.90;;
30824;SDS011;17550;45.486;12.222;2023-05-17T08:25:31;8.10;;;4.10;;
30824;SDS011;17550;45.486;12.222;2023-05-17T08:27:57;4.80;;;3.42;;
30824;SDS011;17550;45.486;12.222;2023-05-17T08:30:22;4.30;;;3.58;;
30824;SDS011;17550;45.486;12.222;2023-05-17T08:32:48;8.57;;;3.00;;
30824;SDS011;17550;45.486;12.222;2023-05-17T08:35:14;8.13;;;3.25;;
30824;SDS011;17550;45.486;12.222;2023-05-17T08:37:40;5.50;;;3.60;;
30824;SDS011;17550;45.486;12.222;2023-05-17T08:40:07;4.18;;;3.28;;
30824;SDS011;17550;45.486;12.222;2023-05-17T08:42:33;10.20;;;4.07;;
30824;SDS011;17550;45.486;12.222;2023-05-17T08:45:00;4.50;;;3.28;;
30824;SDS011;17550;45.486;12.222;2023-05-17T08:47:26;6.03;;;2.83;;
30824;SDS011;17550;45.486;12.222;2023-05-17T08:49:56;4.65;;;2.72;;
30824;SDS011;17550;45.486;12.222;2023-05-17T08:52:25;4.13;;;2.65;;
30824;SDS011;17550;45.486;12.222;2023-05-17T08:54:54;6.93;;;2.67;;
30824;SDS011;17550;45.486;12.222;2023-05-17T08:57:20;3.47;;;2.67;;
30824;SDS011;17550;45.486;12.222;2023-05-17T08:59:48;5.03;;;3.20;;
30824;SDS011;17550;45.486;12.222;2023-05-17T09:02:16;8.63;;;3.15;;
30824;SDS011;17550;45.486;12.222;2023-05-17T09:04:41;6.07;;;2.45;;
30824;SDS011;17550;45.486;12.222;2023-05-17T09:07:07;7.25;;;2.58;;
30824;SDS011;17550;45.486;12.222;2023-05-17T09:09:33;5.13;;;2.10;;
30824;SDS011;17550;45.486;12.222;2023-05-17T09:11:59;6.65;;;3.05;;
30824;SDS011;17550;45.486;12.222;2023-05-17T09:14:31;5.10;;;3.10;;
30824;SDS011;17550;45.486;12.222;2023-05-17T09:16:59;7.03;;;3.20;;
30824;SDS011;17550;45.486;12.222;2023-05-17T09:19:25;5.68;;;3.15;;
30824;SDS011;17550;45.486;12.222;2023-05-17T09:21:54;6.53;;;3.03;;
30824;SDS011;17550;45.486;12.222;2023-05-17T09:24:28;6.75;;;3.40;;
30824;SDS011;17550;45.486;12.222;2023-05-17T09:26:59;8.40;;;3.45;;
30824;SDS011;17550;45.486;12.222;2023-05-17T09:29:26;6.47;;;3.60;;
30824;SDS011;17550;45.486;12.222;2023-05-17T09:31:56;6.50;;;3.85;;
30824;SDS011;17550;45.486;12.222;2023-05-17T09:34:36;5.10;;;3.38;;
30824;SDS011;17550;45.486;12.222;2023-05-17T09:37:05;7.65;;;2.90;;
30824;SDS011;17550;45.486;12.222;2023-05-17T09:39:36;4.30;;;3.17;;
30824;SDS011;17550;45.486;12.222;2023-05-17T09:42:02;5.72;;;3.35;;
30824;SDS011;17550;45.486;12.222;2023-05-17T09:44:28;5.00;;;2.72;;
30824;SDS011;17550;45.486;12.222;2023-05-17T09:46:55;3.88;;;2.50;;
30824;SDS011;17550;45.486;12.222;2023-05-17T09:49:24;4.00;;;2.15;;
30824;SDS011;17550;45.486;12.222;2023-05-17T09:51:51;4.88;;;1.98;;
30824;SDS011;17550;45.486;12.222;2023-05-17T09:54:17;4.75;;;1.83;;
30824;SDS011;17550;45.486;12.222;2023-05-17T09:56:43;4.32;;;1.67;;
30824;SDS011;17550;45.486;12.222;2023-05-17T09:59:13;5.13;;;1.63;;
30824;SDS011;17550;45.486;12.222;2023-05-17T10:01:40;2.85;;;1.40;;
30824;SDS011;17550;45.486;12.222;2023-05-17T10:04:10;3.95;;;1.20;;
30824;SDS011;17550;45.486;12.222;2023-05-17T10:06:40;1.85;;;0.90;;
30824;SDS011;17550;45.486;12.222;2023-05-17T10:09:09;6.03;;;1.05;;
30824;SDS011;17550;45.486;12.222;2023-05-17T10:11:37;3.08;;;1.20;;
30824;SDS011;17550;45.486;12.222;2023-05-17T10:16:46;3.03;;;1.27;;
30824;SDS011;17550;45.486;12.222;2023-05-17T10:19:13;2.03;;;1.25;;
30824;SDS011;17550;45.486;12.222;2023-05-17T10:21:40;2.28;;;0.90;;
30824;SDS011;17550;45.486;12.222;2023-05-17T10:24:07;4.65;;;0.90;;
30824;SDS011;17550;45.486;12.222;2023-05-17T10:26:35;1.77;;;0.93;;
30824;SDS011;17550;45.486;12.222;2023-05-17T10:29:02;1.05;;;0.70;;
30824;SDS011;17550;45.486;12.222;2023-05-17T10:31:29;0.85;;;0.80;;
30824;SDS011;17550;45.486;12.222;2023-05-17T10:34:01;1.35;;;0.80;;
30824;SDS011;17550;45.486;12.222;2023-05-17T10:36:29;3.25;;;0.90;;
30824;SDS011;17550;45.486;12.222;2023-05-17T10:38:55;2.15;;;0.85;;
30824;SDS011;17550;45.486;12.222;2023-05-17T10:41:22;1.33;;;0.80;;
30824;SDS011;17550;45.486;12.222;2023-05-17T10:43:50;3.63;;;0.77;;
30824;SDS011;17550;45.486;12.222;2023-05-17T10:46:18;3.78;;;0.85;;
30824;SDS011;17550;45.486;12.222;2023-05-17T10:48:50;2.53;;;0.90;;
30824;SDS011;17550;45.486;12.222;2023-05-17T10:51:21;1.63;;;0.82;;
30824;SDS011;17550;45.486;12.222;2023-05-17T10:56:38;2.08;;;1.13;;
30824;SDS011;17550;45.486;12.222;2023-05-17T10:59:20;2.20;;;1.10;;
30824;SDS011;17550;45.486;12.222;2023-05-17T11:01:50;1.10;;;0.80;;
30824;SDS011;17550;45.486;12.222;2023-05-17T11:12:36;1.77;;;0.70;;
30824;SDS011;17550;45.486;12.222;2023-05-17T11:22:49;3.33;;;0.90;;
30824;SDS011;17550;45.486;12.222;2023-05-17T11:25:35;2.75;;;1.00;;
30824;SDS011;17550;45.486;12.222;2023-05-17T11:28:18;2.55;;;0.95;;
30824;SDS011;17550;45.486;12.222;2023-05-17T11:30:45;1.63;;;0.88;;
30824;SDS011;17550;45.486;12.222;2023-05-17T11:33:20;4.15;;;0.88;;
30824;SDS011;17550;45.486;12.222;2023-05-17T11:36:17;1.20;;;0.70;;
30824;SDS011;17550;45.486;12.222;2023-05-17T11:39:07;1.27;;;0.75;;
30824;SDS011;17550;45.486;12.222;2023-05-17T11:41:35;1.67;;;0.90;;
30824;SDS011;17550;45.486;12.222;2023-05-17T11:44:05;3.63;;;0.93;;
30824;SDS011;17550;45.486;12.222;2023-05-17T11:46:33;2.03;;;0.80;;
30824;SDS011;17550;45.486;12.222;2023-05-17T11:49:01;3.20;;;1.00;;
30824;SDS011;17550;45.486;12.222;2023-05-17T11:51:30;2.67;;;0.70;;
30824;SDS011;17550;45.486;12.222;2023-05-17T11:53:56;3.20;;;0.80;;
30824;SDS011;17550;45.486;12.222;2023-05-17T11:56:23;1.00;;;0.60;;
30824;SDS011;17550;45.486;12.222;2023-05-17T11:58:51;0.70;;;0.60;;
30824;SDS011;17550;45.486;12.222;2023-05-17T12:01:18;2.13;;;0.80;;
30824;SDS011;17550;45.486;12.222;2023-05-17T12:03:43;2.17;;;0.73;;
30824;SDS011;17550;45.486;12.222;2023-05-17T12:06:12;1.75;;;0.70;;
30824;SDS011;17550;45.486;12.222;2023-05-17T12:08:43;2.75;;;1.00;;
30824;SDS011;17550;45.486;12.222;2023-05-17T12:11:10;1.90;;;0.70;;
30824;SDS011;17550;45.486;12.222;2023-05-17T12:13:39;1.50;;;0.70;;
30824;SDS011;17550;45.486;12.222;2023-05-17T12:16:08;0.80;;;0.50;;
30824;SDS011;17550;45.486;12.222;2023-05-17T12:18:40;1.08;;;0.70;;
30824;SDS011;17550;45.486;12.222;2023-05-17T12:21:11;0.55;;;0.43;;
30824;SDS011;17550;45.486;12.222;2023-05-17T12:23:39;2.80;;;0.60;;
30824;SDS011;17550;45.486;12.222;2023-05-17T12:26:13;6.07;;;1.63;;
30824;SDS011;17550;45.486;12.222;2023-05-17T12:28:41;2.85;;;0.60;;
30824;SDS011;17550;45.486;12.222;2023-05-17T12:31:27;0.63;;;0.63;;
30824;SDS011;17550;45.486;12.222;2023-05-17T12:33:56;0.52;;;0.52;;
30824;SDS011;17550;45.486;12.222;2023-05-17T12:36:23;1.05;;;0.65;;
30824;SDS011;17550;45.486;12.222;2023-05-17T12:38:51;1.58;;;0.55;;
30824;SDS011;17550;45.486;12.222;2023-05-17T12:41:17;1.25;;;0.70;;
30824;SDS011;17550;45.486;12.222;2023-05-17T12:43:44;2.78;;;0.80;;
30824;SDS011;17550;45.486;12.222;2023-05-17T12:46:11;1.33;;;0.80;;
30824;SDS011;17550;45.486;12.222;2023-05-17T12:48:44;2.10;;;0.73;;
30824;SDS011;17550;45.486;12.222;2023-05-17T12:51:18;1.50;;;0.80;;
30824;SDS011;17550;45.486;12.222;2023-05-17T12:53:49;2.20;;;0.73;;
30824;SDS011;17550;45.486;12.222;2023-05-17T12:56:18;1.98;;;0.70;;
30824;SDS011;17550;45.486;12.222;2023-05-17T12:59:02;1.67;;;0.65;;
30824;SDS011;17550;45.486;12.222;2023-05-17T13:01:55;1.50;;;0.60;;
30824;SDS011;17550;45.486;12.222;2023-05-17T13:04:27;3.88;;;1.13;;
30824;SDS011;17550;45.486;12.222;2023-05-17T13:06:56;0.88;;;0.70;;
30824;SDS011;17550;45.486;12.222;2023-05-17T13:09:24;1.20;;;0.60;;
30824;SDS011;17550;45.486;12.222;2023-05-17T13:11:56;1.30;;;0.80;;
30824;SDS011;17550;45.486;12.222;2023-05-17T13:14:42;9.65;;;0.60;;
30824;SDS011;17550;45.486;12.222;2023-05-17T13:17:11;8.63;;;3.15;;
30824;SDS011;17550;45.486;12.222;2023-05-17T13:19:48;2.08;;;1.00;;
30824;SDS011;17550;45.486;12.222;2023-05-17T13:22:13;1.70;;;0.75;;
30824;SDS011;17550;45.486;12.222;2023-05-17T13:24:40;2.70;;;0.70;;
30824;SDS011;17550;45.486;12.222;2023-05-17T13:27:07;1.17;;;0.70;;
30824;SDS011;17550;45.486;12.222;2023-05-17T13:29:34;1.05;;;0.60;;
30824;SDS011;17550;45.486;12.222;2023-05-17T13:32:01;3.72;;;0.90;;
30824;SDS011;17550;45.486;12.222;2023-05-17T13:34:27;0.95;;;0.70;;
30824;SDS011;17550;45.486;12.222;2023-05-17T13:36:53;6.18;;;1.20;;
30824;SDS011;17550;45.486;12.222;2023-05-17T13:39:21;1.50;;;1.25;;
30824;SDS011;17550;45.486;12.222;2023-05-17T13:41:47;2.60;;;0.85;;
30824;SDS011;17550;45.486;12.222;2023-05-17T13:44:13;3.67;;;0.60;;
30824;SDS011;17550;45.486;12.222;2023-05-17T13:46:38;0.85;;;0.70;;
30824;SDS011;17550;45.486;12.222;2023-05-17T13:49:04;1.17;;;0.60;;
30824;SDS011;17550;45.486;12.222;2023-05-17T13:51:32;1.20;;;0.73;;
30824;SDS011;17550;45.486;12.222;2023-05-17T13:53:58;1.63;;;0.60;;
30824;SDS011;17550;45.486;12.222;2023-05-17T13:56:24;1.63;;;0.50;;
30824;SDS011;17550;45.486;12.222;2023-05-17T13:58:50;4.85;;;1.30;;
30824;SDS011;17550;45.486;12.222;2023-05-17T14:01:16;4.05;;;0.70;;
30824;SDS011;17550;45.486;12.222;2023-05-17T14:03:43;4.00;;;0.70;;
30824;SDS011;17550;45.486;12.222;2023-05-17T14:06:09;1.73;;;0.65;;
30824;SDS011;17550;45.486;12.222;2023-05-17T14:08:35;2.80;;;0.80;;
30824;SDS011;17550;45.486;12.222;2023-05-17T14:11:00;5.50;;;1.65;;
30824;SDS011;17550;45.486;12.222;2023-05-17T14:13:26;3.22;;;1.40;;
30824;SDS011;17550;45.486;12.222;2023-05-17T14:15:52;3.70;;;0.95;;
30824;SDS011;17550;45.486;12.222;2023-05-17T14:18:18;1.52;;;0.50;;
30824;SDS011;17550;45.486;12.222;2023-05-17T14:20:44;1.27;;;0.68;;
30824;SDS011;17550;45.486;12.222;2023-05-17T14:23:09;1.88;;;0.60;;
30824;SDS011;17550;45.486;12.222;2023-05-17T14:25:38;1.95;;;0.75;;
30824;SDS011;17550;45.486;12.222;2023-05-17T14:28:04;2.63;;;1.15;;
30824;SDS011;17550;45.486;12.222;2023-05-17T14:30:30;3.72;;;1.45;;
30824;SDS011;17550;45.486;12.222;2023-05-17T14:32:57;4.60;;;1.15;;
30824;SDS011;17550;45.486;12.222;2023-05-17T14:35:23;2.08;;;0.82;;
30824;SDS011;17550;45.486;12.222;2023-05-17T14:37:48;2.58;;;1.17;;
30824;SDS011;17550;45.486;12.222;2023-05-17T14:40:14;1.20;;;0.60;;
30824;SDS011;17550;45.486;12.222;2023-05-17T14:42:40;2.72;;;0.70;;
30824;SDS011;17550;45.486;12.222;2023-05-17T14:45:06;4.25;;;0.70;;
30824;SDS011;17550;45.486;12.222;2023-05-17T14:47:32;2.97;;;1.20;;
30824;SDS011;17550;45.486;12.222;2023-05-17T14:49:58;3.78;;;1.70;;
30824;SDS011;17550;45.486;12.222;2023-05-17T14:52:24;2.25;;;1.52;;
30824;SDS011;17550;45.486;12.222;2023-05-17T14:54:50;1.85;;;0.77;;
30824;SDS011;17550;45.486;12.222;2023-05-17T14:57:16;1.88;;;0.90;;
30824;SDS011;17550;45.486;12.222;2023-05-17T14:59:42;3.00;;;1.27;;
30824;SDS011;17550;45.486;12.222;2023-05-17T15:02:08;4.18;;;1.20;;
30824;SDS011;17550;45.486;12.222;2023-05-17T15:04:34;2.78;;;1.30;;
30824;SDS011;17550;45.486;12.222;2023-05-17T15:07:00;2.42;;;1.27;;
30824;SDS011;17550;45.486;12.222;2023-05-17T15:09:26;2.63;;;1.15;;